createdAt,value
2022-09-04T00:00:29.738Z,17.20
2022-09-04T00:03:49.865Z,17.20
2022-09-04T00:07:06.800Z,17.10
2022-09-04T00:10:38.100Z,17.10
2022-09-04T00:14:01.637Z,17.10
2022-09-04T00:17:11.774Z,17.10
2022-09-04T00:20:27.154Z,17.10
2022-09-04T00:23:50.698Z,17.00
2022-09-04T00:27:07.491Z,17.00
2022-09-04T00:30:16.186Z,17.00
2022-09-04T00:33:26.591Z,16.90
2022-09-04T00:36:28.721Z,16.90
2022-09-04T00:39:45.352Z,16.90
2022-09-04T00:43:24.515Z,16.90
2022-09-04T00:46:45.307Z,16.80
2022-09-04T00:50:11.947Z,16.80
2022-09-04T00:53:37.437Z,16.80
2022-09-04T00:57:19.957Z,16.80
2022-09-04T01:00:22.827Z,16.70
2022-09-04T01:03:56.163Z,16.70
2022-09-04T01:07:09.988Z,16.70
2022-09-04T01:10:34.476Z,16.70
2022-09-04T01:13:51.872Z,16.70
2022-09-04T01:17:23.214Z,16.70
2022-09-04T01:20:55.659Z,16.70
2022-09-04T01:24:19.935Z,16.70
2022-09-04T01:27:42.215Z,16.70
2022-09-04T01:31:09.331Z,16.70
2022-09-04T01:34:31.000Z,16.70
2022-09-04T01:38:17.938Z,16.70
2022-09-04T01:41:37.690Z,16.80
2022-09-04T01:44:40.920Z,16.70
2022-09-04T01:47:49.507Z,16.70
2022-09-04T01:50:53.964Z,16.70
2022-09-04T01:54:27.492Z,16.60
2022-09-04T01:58:07.084Z,16.70
2022-09-04T02:01:52.679Z,16.60
2022-09-04T02:05:17.731Z,16.60
2022-09-04T02:09:00.246Z,16.60
2022-09-04T02:12:37.975Z,16.60
2022-09-04T02:16:04.996Z,16.60
2022-09-04T02:19:39.194Z,16.50
2022-09-04T02:22:45.122Z,16.60
2022-09-04T02:26:34.390Z,16.60
2022-09-04T02:30:10.606Z,16.50
2022-09-04T02:33:20.580Z,16.60
2022-09-04T02:36:50.206Z,16.60
2022-09-04T02:40:13.622Z,16.50
2022-09-04T02:43:48.513Z,16.50
2022-09-04T02:47:12.534Z,16.50
2022-09-04T02:50:49.891Z,16.50
2022-09-04T02:54:30.143Z,16.50
2022-09-04T02:57:56.617Z,16.40
2022-09-04T03:01:22.319Z,16.40
2022-09-04T03:04:50.081Z,16.40
2022-09-04T03:08:08.355Z,16.40
2022-09-04T03:11:29.707Z,16.30
2022-09-04T03:14:58.367Z,16.30
2022-09-04T03:18:24.500Z,16.20
2022-09-04T03:22:20.528Z,16.20
2022-09-04T03:25:57.812Z,16.20
2022-09-04T03:29:17.090Z,16.10
2022-09-04T03:32:26.563Z,16.00
2022-09-04T03:36:01.130Z,16.00
2022-09-04T03:39:27.470Z,16.00
2022-09-04T03:43:03.339Z,16.00
2022-09-04T03:46:39.078Z,16.00
2022-09-04T03:49:56.149Z,16.00
2022-09-04T03:53:19.752Z,16.10
2022-09-04T03:56:44.202Z,16.20
2022-09-04T04:00:13.411Z,16.20
2022-09-04T04:03:37.089Z,16.20
2022-09-04T04:07:01.613Z,16.20
2022-09-04T04:10:45.334Z,16.20
2022-09-04T04:14:08.986Z,16.20
2022-09-04T04:17:41.770Z,16.10
2022-09-04T04:20:45.573Z,16.10
2022-09-04T04:24:39.296Z,16.00
2022-09-04T04:28:25.583Z,15.90
2022-09-04T04:31:38.236Z,15.90
2022-09-04T04:34:43.987Z,15.90
2022-09-04T04:38:13.022Z,15.80
2022-09-04T04:41:53.465Z,15.80
2022-09-04T04:45:40.811Z,15.80
2022-09-04T04:49:13.885Z,15.80
2022-09-04T04:52:18.633Z,15.70
2022-09-04T04:56:15.324Z,15.70
2022-09-04T04:59:44.160Z,15.70
2022-09-04T05:03:06.850Z,15.60
2022-09-04T05:06:21.931Z,15.60
2022-09-04T05:09:57.974Z,15.60
2022-09-04T05:14:02.566Z,15.60
2022-09-04T05:17:14.461Z,15.60
2022-09-04T05:21:02.568Z,15.60
2022-09-04T05:24:20.882Z,15.60
2022-09-04T05:27:22.923Z,15.60
2022-09-04T05:30:43.422Z,15.60
2022-09-04T05:34:27.785Z,15.50
2022-09-04T05:38:32.031Z,15.50
2022-09-04T05:42:06.953Z,15.60
2022-09-04T05:45:49.363Z,15.50
2022-09-04T05:49:09.366Z,15.50
2022-09-04T05:52:43.348Z,15.50
2022-09-04T05:56:13.276Z,15.50
2022-09-04T05:59:35.618Z,15.60
2022-09-04T06:03:25.105Z,15.50
2022-09-04T06:07:06.885Z,15.50
2022-09-04T06:10:39.918Z,15.50
2022-09-04T06:14:10.219Z,15.50
2022-09-04T06:17:18.428Z,15.50
2022-09-04T06:21:04.504Z,15.40
2022-09-04T06:24:39.756Z,15.40
2022-09-04T06:28:26.779Z,15.40
2022-09-04T06:31:43.723Z,15.40
2022-09-04T06:35:54.879Z,15.40
2022-09-04T06:39:16.445Z,15.40
2022-09-04T06:42:41.386Z,15.40
2022-09-04T06:46:02.155Z,15.40
2022-09-04T06:49:43.842Z,15.50
2022-09-04T06:52:59.138Z,15.50
2022-09-04T06:56:21.352Z,15.50
2022-09-04T06:59:35.807Z,15.50
2022-09-04T07:02:59.607Z,15.50
2022-09-04T07:06:22.306Z,15.50
2022-09-04T07:09:49.069Z,15.50
2022-09-04T07:13:19.361Z,15.40
2022-09-04T07:16:56.759Z,15.50
2022-09-04T07:20:15.572Z,15.50
2022-09-04T07:23:26.884Z,15.50
2022-09-04T07:27:07.875Z,15.40
2022-09-04T07:30:17.341Z,15.40
2022-09-04T07:34:11.182Z,15.40
2022-09-04T07:37:48.270Z,15.40
2022-09-04T07:40:58.910Z,15.40
2022-09-04T07:44:47.547Z,15.50
2022-09-04T07:48:05.702Z,15.40
2022-09-04T07:51:16.142Z,15.50
2022-09-04T07:54:56.538Z,15.50
2022-09-04T07:58:37.400Z,15.40
2022-09-04T08:02:03.958Z,15.40
2022-09-04T08:05:48.324Z,15.50
2022-09-04T08:08:59.068Z,15.50
2022-09-04T08:12:21.987Z,15.50
2022-09-04T08:15:43.244Z,15.50
2022-09-04T08:19:15.800Z,15.50
2022-09-04T08:22:36.462Z,15.60
2022-09-04T08:26:14.317Z,15.60
2022-09-04T08:29:22.584Z,15.70
2022-09-04T08:32:49.582Z,15.80
2022-09-04T08:36:01.996Z,15.90
2022-09-04T08:39:09.867Z,16.00
2022-09-04T08:42:50.035Z,16.00
2022-09-04T08:46:29.053Z,16.00
2022-09-04T08:50:06.034Z,16.00
2022-09-04T08:53:26.644Z,15.90
2022-09-04T08:57:02.915Z,16.00
2022-09-04T09:00:20.792Z,16.10
2022-09-04T09:04:22.856Z,16.10
2022-09-04T09:07:58.537Z,16.20
2022-09-04T09:11:06.316Z,16.30
2022-09-04T09:15:01.027Z,16.40
2022-09-04T09:18:40.569Z,16.50
2022-09-04T09:22:20.663Z,16.50
2022-09-04T09:25:25.423Z,16.60
2022-09-04T09:29:23.489Z,16.60
2022-09-04T09:33:05.803Z,16.60
2022-09-04T09:36:14.862Z,16.70
2022-09-04T09:39:44.669Z,16.90
2022-09-04T09:43:24.496Z,17.10
2022-09-04T09:47:23.607Z,17.20
2022-09-04T09:50:40.709Z,17.10
2022-09-04T09:54:23.441Z,17.40
2022-09-04T09:57:53.484Z,17.60
2022-09-04T10:01:25.510Z,17.90
2022-09-04T10:05:14.965Z,17.90
2022-09-04T10:08:36.011Z,18.00
2022-09-04T10:12:02.867Z,18.10
2022-09-04T10:15:46.560Z,17.90
2022-09-04T10:19:39.456Z,17.90
2022-09-04T10:23:04.105Z,17.90
2022-09-04T10:26:39.288Z,17.80
2022-09-04T10:29:48.830Z,17.80
2022-09-04T10:33:18.815Z,18.00
2022-09-04T10:36:20.949Z,18.20
2022-09-04T10:40:01.427Z,18.30
2022-09-04T10:43:22.401Z,18.10
2022-09-04T10:46:27.847Z,18.20
2022-09-04T10:50:07.970Z,18.20
2022-09-04T10:53:41.767Z,18.30
2022-09-04T10:57:37.373Z,18.40
2022-09-04T11:01:21.499Z,18.70
2022-09-04T11:05:07.078Z,18.70
2022-09-04T11:08:20.297Z,18.80
2022-09-04T11:11:40.651Z,19.00
2022-09-04T11:15:32.523Z,19.10
2022-09-04T11:18:46.482Z,19.10
2022-09-04T11:22:43.151Z,19.50
2022-09-04T11:26:19.119Z,19.60
2022-09-04T11:29:58.647Z,19.60
2022-09-04T11:33:18.802Z,19.70
2022-09-04T11:36:29.724Z,19.70
2022-09-04T11:39:52.864Z,19.90
2022-09-04T11:43:31.541Z,19.80
2022-09-04T11:47:15.200Z,20.00
2022-09-04T11:50:56.494Z,19.70
2022-09-04T11:54:24.131Z,19.90
2022-09-04T11:57:44.100Z,19.70
2022-09-04T12:01:04.228Z,20.00
2022-09-04T12:04:37.656Z,19.90
2022-09-04T12:08:26.178Z,20.00
2022-09-04T12:11:46.895Z,19.80
2022-09-04T12:15:07.293Z,19.60
2022-09-04T12:19:01.337Z,19.60
2022-09-04T12:22:51.812Z,19.40
2022-09-04T12:26:24.946Z,19.50
2022-09-04T12:30:00.010Z,19.30
2022-09-04T12:33:19.900Z,19.00
2022-09-04T12:36:52.080Z,18.80
2022-09-04T12:40:30.410Z,18.70
2022-09-04T12:44:11.819Z,18.80
2022-09-04T12:47:25.859Z,18.80
2022-09-04T12:51:14.853Z,18.70
2022-09-04T12:55:04.138Z,18.80
2022-09-04T12:58:18.248Z,18.90
2022-09-04T13:01:49.726Z,18.90
2022-09-04T13:05:49.791Z,19.00
2022-09-04T13:09:04.969Z,19.00
2022-09-04T13:12:44.389Z,19.20
2022-09-04T13:16:08.946Z,19.30
2022-09-04T13:20:09.179Z,19.40
2022-09-04T13:24:01.629Z,19.50
2022-09-04T13:27:26.404Z,19.60
2022-09-04T13:30:29.020Z,19.60
2022-09-04T13:33:58.254Z,19.60
2022-09-04T13:37:27.611Z,19.70
2022-09-04T13:40:44.954Z,19.70
2022-09-04T13:44:16.309Z,19.70
2022-09-04T13:47:32.799Z,19.90
2022-09-04T13:50:40.339Z,19.70
2022-09-04T13:54:16.915Z,19.70
2022-09-04T13:57:21.750Z,19.70
2022-09-04T14:00:28.794Z,19.90
2022-09-04T14:03:33.759Z,20.20
2022-09-04T14:06:35.842Z,20.10
2022-09-04T14:09:44.349Z,20.00
2022-09-04T14:13:24.315Z,19.80
2022-09-04T14:16:26.458Z,19.80
2022-09-04T14:19:51.408Z,19.80
2022-09-04T14:23:12.513Z,19.90
2022-09-04T14:26:39.535Z,20.00
2022-09-04T14:30:15.140Z,20.10
2022-09-04T14:33:29.224Z,20.10
2022-09-04T14:37:24.086Z,20.10
2022-09-04T14:40:45.937Z,20.20
2022-09-04T14:44:03.765Z,20.30
2022-09-04T14:47:26.086Z,20.40
2022-09-04T14:50:29.463Z,20.40
2022-09-04T14:53:33.748Z,20.50
2022-09-04T14:56:58.341Z,20.40
2022-09-04T15:00:19.139Z,20.30
2022-09-04T15:03:25.696Z,20.30
2022-09-04T15:07:09.834Z,20.50
2022-09-04T15:10:32.991Z,20.50
2022-09-04T15:13:54.816Z,21.00
2022-09-04T15:17:03.535Z,21.90
2022-09-04T15:20:10.100Z,21.90
2022-09-04T15:24:02.129Z,21.40
2022-09-04T15:27:28.520Z,21.10
2022-09-04T15:30:38.733Z,20.90
2022-09-04T15:33:43.059Z,21.20
2022-09-04T15:36:45.214Z,21.40
2022-09-04T15:40:10.931Z,21.50
2022-09-04T15:43:16.011Z,23.60
2022-09-04T15:46:33.237Z,26.30
2022-09-04T15:49:50.534Z,26.00
2022-09-04T15:53:25.109Z,27.50
2022-09-04T15:56:34.973Z,26.50
2022-09-04T15:59:49.815Z,23.60
2022-09-04T16:03:15.549Z,22.90
2022-09-04T16:06:30.141Z,22.70
2022-09-04T16:10:25.882Z,22.70
2022-09-04T16:13:28.937Z,22.40
2022-09-04T16:16:44.529Z,22.60
2022-09-04T16:20:24.172Z,24.20
2022-09-04T16:23:35.327Z,25.40
2022-09-04T16:26:37.391Z,23.90
2022-09-04T16:30:09.974Z,23.00
2022-09-04T16:33:32.251Z,22.60
2022-09-04T16:36:48.338Z,24.50
2022-09-04T16:40:21.795Z,25.90
2022-09-04T16:43:28.876Z,26.80
2022-09-04T16:46:32.466Z,27.00
2022-09-04T16:49:55.196Z,25.40
2022-09-04T16:53:17.487Z,24.90
2022-09-04T16:56:36.443Z,24.60
2022-09-04T16:59:50.983Z,23.40
2022-09-04T17:03:02.713Z,22.70
2022-09-04T17:06:18.291Z,23.50
2022-09-04T17:09:42.245Z,23.80
2022-09-04T17:13:15.188Z,22.90
2022-09-04T17:16:52.713Z,22.10
2022-09-04T17:20:12.326Z,21.80
2022-09-04T17:29:01.004Z,21.60
2022-09-04T17:29:08.636Z,21.60
2022-09-04T17:30:51.509Z,21.40
2022-09-04T17:40:36.759Z,21.60
2022-09-04T17:40:44.351Z,21.40
2022-09-04T17:41:31.321Z,21.60
2022-09-04T17:45:04.036Z,21.40
2022-09-04T17:48:12.009Z,21.40
2022-09-04T17:51:27.845Z,21.30
2022-09-04T17:54:32.355Z,21.30
2022-09-04T17:57:51.872Z,21.40
2022-09-04T18:01:15.222Z,21.30
2022-09-04T18:04:32.646Z,21.30
2022-09-04T18:08:09.226Z,21.30
2022-09-04T18:11:36.114Z,21.40
2022-09-04T18:15:25.221Z,21.20
2022-09-04T18:18:36.844Z,21.00
2022-09-04T18:22:07.793Z,20.90
2022-09-04T18:25:26.937Z,21.00
2022-09-04T18:28:52.185Z,20.90
2022-09-04T18:37:11.681Z,20.90
2022-09-04T18:37:25.848Z,20.80
2022-09-04T18:39:37.744Z,20.50
2022-09-04T18:50:25.015Z,20.40
2022-09-04T18:50:42.794Z,20.10
2022-09-04T18:50:45.240Z,20.20
2022-09-04T18:53:29.615Z,20.00
2022-09-04T18:56:54.231Z,20.00
2022-09-04T19:00:10.122Z,19.90
2022-09-04T19:04:18.584Z,19.80
2022-09-04T19:07:42.661Z,19.70
2022-09-04T19:10:55.228Z,19.60
2022-09-04T19:14:21.631Z,19.50
2022-09-04T19:17:29.328Z,19.50
2022-09-04T19:20:38.531Z,19.50
2022-09-04T19:24:24.599Z,19.60
2022-09-04T19:27:38.703Z,19.60
2022-09-04T19:30:53.410Z,19.50
2022-09-04T19:34:23.542Z,19.50
2022-09-04T19:42:06.060Z,19.50
2022-09-04T19:45:56.906Z,19.40
2022-09-04T19:46:18.773Z,19.40
2022-09-04T19:52:41.625Z,19.30
2022-09-04T19:53:33.790Z,19.30
2022-09-04T19:56:28.880Z,19.30
2022-09-04T19:59:44.804Z,19.30
2022-09-04T20:03:37.321Z,19.30
2022-09-04T20:06:51.174Z,19.30
2022-09-04T20:09:56.136Z,19.30
2022-09-04T20:13:32.479Z,19.30
2022-09-04T20:16:52.944Z,19.30
2022-09-04T20:20:03.208Z,19.20
2022-09-04T20:23:33.833Z,19.20
2022-09-04T20:26:51.811Z,19.10
2022-09-04T20:30:11.970Z,19.00
2022-09-04T20:33:20.366Z,19.00
2022-09-04T20:36:32.691Z,19.00
2022-09-04T20:39:41.878Z,18.90
2022-09-04T20:43:03.485Z,18.90
2022-09-04T20:52:42.059Z,19.00
2022-09-04T20:53:06.686Z,18.90
2022-09-04T20:54:29.339Z,18.80
2022-09-04T21:03:05.241Z,18.80
2022-09-04T21:03:18.287Z,18.70
2022-09-04T21:05:23.635Z,18.70
2022-09-04T21:09:22.690Z,18.70
2022-09-04T21:12:35.240Z,18.70
2022-09-04T21:15:46.279Z,18.70
2022-09-04T21:19:27.488Z,18.60
2022-09-04T21:22:52.231Z,18.60
2022-09-04T21:26:18.326Z,18.50
2022-09-04T21:29:41.434Z,18.50
2022-09-04T21:33:27.287Z,18.50
2022-09-04T21:36:41.421Z,18.50
2022-09-04T21:40:52.757Z,18.50
2022-09-04T21:44:28.415Z,18.50
2022-09-04T21:48:05.132Z,18.50
2022-09-04T21:52:13.771Z,18.50
2022-09-04T22:02:26.037Z,18.50
2022-09-04T22:02:38.283Z,18.50
2022-09-04T22:03:22.719Z,18.50
2022-09-04T22:10:21.686Z,18.60
2022-09-04T22:13:39.703Z,18.60
2022-09-04T22:15:05.562Z,18.60
2022-09-04T22:18:31.565Z,18.60
2022-09-04T22:21:47.139Z,18.70
2022-09-04T22:25:10.659Z,18.60
2022-09-04T22:28:57.706Z,18.60
2022-09-04T22:32:20.438Z,18.60
2022-09-04T22:36:13.590Z,18.50
2022-09-04T22:39:40.426Z,18.50
2022-09-04T22:42:51.775Z,18.50
2022-09-04T22:46:12.876Z,18.40
2022-09-04T22:49:47.395Z,18.30
2022-09-04T22:53:40.451Z,18.20
2022-09-04T22:56:57.263Z,18.10
2022-09-04T23:00:22.173Z,18.10
2022-09-04T23:04:03.938Z,18.10
2022-09-04T23:12:09.481Z,18.30
2022-09-04T23:13:47.940Z,18.20
2022-09-04T23:14:24.118Z,18.10
2022-09-04T23:17:57.474Z,18.20
2022-09-04T23:26:37.748Z,18.10
2022-09-04T23:26:43.387Z,18.10
2022-09-04T23:28:48.287Z,18.20
2022-09-04T23:32:18.099Z,18.10
2022-09-04T23:36:21.536Z,18.10
2022-09-04T23:39:50.640Z,18.20
2022-09-04T23:44:02.512Z,18.10
2022-09-04T23:47:48.459Z,18.10
2022-09-04T23:50:50.319Z,18.10
2022-09-04T23:54:36.752Z,18.10
2022-09-04T23:57:52.789Z,18.00
